Aviation Digital Data Service (ADDS)

Output produced by METARs form (1337 UTC 19 April 2018)
found at http://aviationweather.gov/adds/metars/
 
KROA 191134Z 1912/2012 29011KT P6SM BKN035 OVC070 
     FM191500 29020G35KT P6SM BKN040 
     FM192300 31015G26KT P6SM SCT050 
     FM200600 20012KT P6SM SKC